createdAt,value
2019-04-03T06:00:28.320Z,78.46
2019-04-03T06:01:28.092Z,77.44
2019-04-03T06:02:28.437Z,75.69
2019-04-03T06:03:40.155Z,76.82
2019-04-03T06:04:29.062Z,77.74
2019-04-03T06:05:28.064Z,77.78
2019-04-03T06:06:28.207Z,78.25
2019-04-03T06:07:28.026Z,77.47
2019-04-03T06:08:28.045Z,77.26
2019-04-03T06:09:28.005Z,77.23
2019-04-03T06:10:29.829Z,76.82
2019-04-03T06:11:27.983Z,76.92
2019-04-03T06:12:28.006Z,75.69
2019-04-03T06:13:28.010Z,76.24
2019-04-03T06:14:27.978Z,76.96
2019-04-03T06:15:27.938Z,77.17
2019-04-03T06:16:27.942Z,77.00
2019-04-03T06:17:27.926Z,77.40
2019-04-03T06:18:31.032Z,78.43
2019-04-03T06:19:27.915Z,78.53
2019-04-03T06:20:27.888Z,78.85
2019-04-03T06:21:28.036Z,78.74
2019-04-03T06:22:27.866Z,79.15
2019-04-03T06:23:27.896Z,79.46
2019-04-03T06:24:27.998Z,79.25
2019-04-03T06:25:29.985Z,77.51
2019-04-03T06:26:27.852Z,78.23
2019-04-03T06:27:28.165Z,78.64
2019-04-03T06:28:27.849Z,79.05
2019-04-03T06:29:28.162Z,78.94
2019-04-03T06:30:27.783Z,79.46
2019-04-03T06:31:27.828Z,79.56
2019-04-03T06:32:29.221Z,79.77
2019-04-03T06:33:27.755Z,79.15
2019-04-03T06:34:27.984Z,78.94
2019-04-03T06:35:27.733Z,79.46
2019-04-03T06:36:27.726Z,79.87
2019-04-03T06:37:27.875Z,79.77
2019-04-03T06:38:27.761Z,79.60
2019-04-03T06:39:31.239Z,80.32
2019-04-03T06:40:27.678Z,80.93
2019-04-03T06:41:27.675Z,81.96
2019-04-03T06:42:27.658Z,80.83
2019-04-03T06:43:29.977Z,79.39
2019-04-03T06:44:27.825Z,79.43
2019-04-03T06:45:27.630Z,79.33
2019-04-03T06:46:29.080Z,79.63
2019-04-03T06:47:27.890Z,80.15
2019-04-03T06:48:27.609Z,80.73
2019-04-03T06:49:27.747Z,81.18
2019-04-03T06:50:27.580Z,80.32
2019-04-03T06:51:27.838Z,79.80
2019-04-03T06:52:27.581Z,81.76
2019-04-03T06:53:28.634Z,82.06
2019-04-03T06:54:27.817Z,80.73
2019-04-03T06:55:27.531Z,82.06
2019-04-03T06:56:27.503Z,81.48
2019-04-03T06:57:27.550Z,82.51
2019-04-03T06:58:37.350Z,82.27
2019-04-03T06:59:28.516Z,82.68
2019-04-03T07:00:27.505Z,83.09
2019-04-03T07:01:27.448Z,82.78
2019-04-03T07:02:30.830Z,80.93
2019-04-03T07:03:27.430Z,81.04
2019-04-03T07:04:27.426Z,81.14
2019-04-03T07:05:28.052Z,81.24
2019-04-03T07:06:27.646Z,80.93
2019-04-03T07:07:34.360Z,80.69
2019-04-03T07:08:34.652Z,79.80
2019-04-03T07:09:35.207Z,80.07
2019-04-03T07:10:28.399Z,79.25
2019-04-03T07:11:27.378Z,78.94
2019-04-03T07:12:27.441Z,79.25
2019-04-03T07:13:29.533Z,79.25
2019-04-03T07:14:27.408Z,79.05
2019-04-03T07:15:27.317Z,79.66
2019-04-03T07:16:28.607Z,79.77
2019-04-03T07:17:27.278Z,79.66
2019-04-03T07:18:27.267Z,80.04
2019-04-03T07:19:27.289Z,80.28
2019-04-03T07:20:27.465Z,79.77
2019-04-03T07:21:27.772Z,79.97
2019-04-03T07:22:28.223Z,80.04
2019-04-03T07:23:28.981Z,79.42
2019-04-03T07:24:27.211Z,79.01
2019-04-03T07:25:27.229Z,79.11
2019-04-03T07:26:27.524Z,79.32
2019-04-03T07:27:27.200Z,79.01
2019-04-03T07:28:30.110Z,79.42
2019-04-03T07:29:27.366Z,80.24
2019-04-03T07:30:27.139Z,79.93
2019-04-03T07:31:27.483Z,79.73
2019-04-03T07:32:27.179Z,80.14
2019-04-03T07:33:28.714Z,79.01
2019-04-03T07:34:27.096Z,79.42
2019-04-03T07:35:27.167Z,80.24
2019-04-03T07:36:27.080Z,80.58
2019-04-03T07:37:27.215Z,80.96
2019-04-03T07:38:27.055Z,81.62
2019-04-03T07:39:27.237Z,81.41
2019-04-03T07:40:27.034Z,80.69
2019-04-03T07:41:27.062Z,81.37
2019-04-03T07:42:27.024Z,80.38
2019-04-03T07:43:27.597Z,80.28
2019-04-03T07:44:27.713Z,79.73
2019-04-03T07:45:26.989Z,80.86
2019-04-03T07:46:26.969Z,81.00
2019-04-03T07:47:27.062Z,81.27
2019-04-03T07:48:27.297Z,80.86
2019-04-03T07:49:26.946Z,80.96
2019-04-03T07:50:26.965Z,80.55
2019-04-03T07:51:26.924Z,80.45
2019-04-03T07:52:26.954Z,80.45
2019-04-03T07:53:26.900Z,80.45
2019-04-03T07:54:27.299Z,80.65
2019-04-03T07:55:28.504Z,80.65
2019-04-03T07:56:26.980Z,80.14
2019-04-03T07:57:29.224Z,80.65
2019-04-03T07:58:26.860Z,80.28
2019-04-03T07:59:27.109Z,80.28
2019-04-03T08:00:26.824Z,79.77
2019-04-03T08:01:26.836Z,80.93
2019-04-03T08:02:26.940Z,80.73
2019-04-03T08:03:26.804Z,81.34
2019-04-03T08:04:27.139Z,81.55
2019-04-03T08:05:26.805Z,81.65
2019-04-03T08:06:26.792Z,81.45
2019-04-03T08:07:26.893Z,81.45
2019-04-03T08:08:26.734Z,81.45
2019-04-03T08:09:26.795Z,82.06
2019-04-03T08:10:28.009Z,81.45
2019-04-03T08:11:26.857Z,83.09
2019-04-03T08:12:26.698Z,81.55
2019-04-03T08:13:26.761Z,81.71
2019-04-03T08:14:26.834Z,82.75
2019-04-03T08:15:26.688Z,81.55
2019-04-03T08:16:26.650Z,81.34
2019-04-03T08:17:26.658Z,81.76
2019-04-03T08:18:26.682Z,82.78
2019-04-03T08:19:26.628Z,82.06
2019-04-03T08:20:26.609Z,82.47
2019-04-03T08:21:28.063Z,81.82
2019-04-03T08:22:26.787Z,82.75
2019-04-03T08:23:26.761Z,83.26
2019-04-03T08:24:26.885Z,83.26
2019-04-03T08:25:26.594Z,81.71
2019-04-03T08:26:27.423Z,81.20
2019-04-03T08:27:26.541Z,81.68
2019-04-03T08:28:29.661Z,81.62
2019-04-03T08:29:26.529Z,81.88
2019-04-03T08:30:26.499Z,82.19
2019-04-03T08:31:26.487Z,81.78
2019-04-03T08:32:26.574Z,81.27
2019-04-03T08:33:27.769Z,81.37
2019-04-03T08:34:26.453Z,81.48
2019-04-03T08:35:26.448Z,81.99
2019-04-03T08:36:27.035Z,82.50
2019-04-03T08:37:30.191Z,80.82
2019-04-03T08:38:27.453Z,81.37
2019-04-03T08:39:26.402Z,81.27
2019-04-03T08:40:26.558Z,81.43
2019-04-03T08:41:26.576Z,81.34
2019-04-03T08:42:28.080Z,80.21
2019-04-03T08:43:26.538Z,79.73
2019-04-03T08:44:26.347Z,80.10
2019-04-03T08:45:26.340Z,80.35
2019-04-03T08:46:26.333Z,80.76
2019-04-03T08:47:26.403Z,80.00
2019-04-03T08:48:26.376Z,79.59
2019-04-03T08:49:26.697Z,79.28
2019-04-03T08:50:26.799Z,79.59
2019-04-03T08:51:26.282Z,79.18
2019-04-03T08:52:26.275Z,79.38
2019-04-03T08:53:26.515Z,79.96
2019-04-03T08:54:26.335Z,80.00
2019-04-03T08:55:26.240Z,80.10
2019-04-03T08:56:26.226Z,79.66
2019-04-03T08:57:26.215Z,80.27
2019-04-03T08:58:26.782Z,79.96
2019-04-03T08:59:26.786Z,79.14
2019-04-03T09:00:26.184Z,79.35
2019-04-03T09:01:26.166Z,78.74
2019-04-03T09:02:26.287Z,78.74
2019-04-03T09:03:26.240Z,78.12
2019-04-03T09:04:26.134Z,77.91
2019-04-03T09:05:26.226Z,77.61
2019-04-03T09:06:26.161Z,77.57
2019-04-03T09:07:26.129Z,78.19
2019-04-03T09:08:26.733Z,77.77
2019-04-03T09:09:28.481Z,76.24
2019-04-03T09:10:26.072Z,76.24
2019-04-03T09:11:26.106Z,76.65
2019-04-03T09:12:26.062Z,76.65
2019-04-03T09:13:26.037Z,77.47
2019-04-03T09:14:26.207Z,76.54
2019-04-03T09:15:28.250Z,76.85
2019-04-03T09:16:26.042Z,78.56
2019-04-03T09:17:25.996Z,76.51
2019-04-03T09:18:25.998Z,76.51
2019-04-03T09:19:26.006Z,75.69
2019-04-03T09:20:25.964Z,73.88
2019-04-03T09:21:26.140Z,73.36
2019-04-03T09:22:26.152Z,73.06
2019-04-03T09:23:26.046Z,73.71
2019-04-03T09:24:29.006Z,73.47
2019-04-03T09:25:25.905Z,73.71
2019-04-03T09:26:25.946Z,74.02
2019-04-03T09:27:26.171Z,73.74
2019-04-03T09:28:25.909Z,73.81
2019-04-03T09:29:25.897Z,73.95
2019-04-03T09:30:25.986Z,74.53
2019-04-03T09:31:25.940Z,76.00
2019-04-03T09:32:25.842Z,73.71
2019-04-03T09:33:26.975Z,73.64
2019-04-03T09:34:28.744Z,73.40
2019-04-03T09:35:25.817Z,73.10
2019-04-03T09:36:25.852Z,73.50
2019-04-03T09:37:25.788Z,74.12
2019-04-03T09:38:25.768Z,74.02
2019-04-03T09:39:25.758Z,74.02
2019-04-03T09:40:25.811Z,74.32
2019-04-03T09:41:25.764Z,73.47
2019-04-03T09:42:25.734Z,72.96
2019-04-03T09:43:25.719Z,70.84
2019-04-03T09:44:25.961Z,69.89
2019-04-03T09:45:28.126Z,71.45
2019-04-03T09:46:25.760Z,70.91
2019-04-03T09:47:25.696Z,70.02
2019-04-03T09:48:25.662Z,71.01
2019-04-03T09:49:25.681Z,71.32
2019-04-03T09:50:25.870Z,71.01
2019-04-03T09:51:25.847Z,71.42
2019-04-03T09:52:38.376Z,71.28
2019-04-03T09:53:26.772Z,71.28
2019-04-03T09:54:27.275Z,71.18
2019-04-03T09:55:25.586Z,67.49
2019-04-03T09:56:25.704Z,67.08
2019-04-03T09:57:25.564Z,68.11
2019-04-03T09:58:25.556Z,68.83
2019-04-03T09:59:25.543Z,68.83
2019-04-03T10:00:25.548Z,68.93
2019-04-03T10:01:25.568Z,68.52
2019-04-03T10:02:25.514Z,68.93
2019-04-03T10:03:25.494Z,70.26
2019-04-03T10:04:26.713Z,68.52
2019-04-03T10:05:26.737Z,69.34
2019-04-03T10:06:25.509Z,69.44
2019-04-03T10:07:25.464Z,68.62
2019-04-03T10:08:25.446Z,68.73
2019-04-03T10:09:25.442Z,67.70
2019-04-03T10:10:26.328Z,67.52
2019-04-03T10:11:25.446Z,68.45
2019-04-03T10:12:25.400Z,67.94
2019-04-03T10:13:26.321Z,68.35
2019-04-03T10:14:27.141Z,69.06
2019-04-03T10:15:25.376Z,68.14
2019-04-03T10:16:25.370Z,66.60
2019-04-03T10:17:25.347Z,67.32
2019-04-03T10:18:25.392Z,68.65
2019-04-03T10:19:25.556Z,67.11
2019-04-03T10:20:25.324Z,67.63
2019-04-03T10:21:25.352Z,66.81
2019-04-03T10:22:25.407Z,66.19
2019-04-03T10:23:28.186Z,67.43
2019-04-03T10:24:25.488Z,67.83
2019-04-03T10:25:25.264Z,65.07
2019-04-03T10:26:25.382Z,64.97
2019-04-03T10:27:25.253Z,66.19
2019-04-03T10:28:25.512Z,64.97
2019-04-03T10:29:25.260Z,65.99
2019-04-03T10:30:25.209Z,65.27
2019-04-03T10:31:25.221Z,66.71
2019-04-03T10:32:27.664Z,66.19
2019-04-03T10:33:25.404Z,66.09
2019-04-03T10:34:25.166Z,65.78
2019-04-03T10:35:25.263Z,66.71
2019-04-03T10:36:25.330Z,66.09
2019-04-03T10:37:25.134Z,66.30
2019-04-03T10:38:25.153Z,66.30
2019-04-03T10:39:25.523Z,67.11
2019-04-03T10:40:25.462Z,67.73
2019-04-03T10:41:27.649Z,68.45
2019-04-03T10:42:25.075Z,68.93
2019-04-03T10:43:25.072Z,69.44
2019-04-03T10:44:25.258Z,69.54
2019-04-03T10:45:25.060Z,68.62
2019-04-03T10:46:25.303Z,67.29
2019-04-03T10:47:30.226Z,69.65
2019-04-03T10:48:27.894Z,70.16
2019-04-03T10:49:25.019Z,69.54
2019-04-03T10:50:25.224Z,69.03
2019-04-03T10:51:25.272Z,69.65
2019-04-03T10:52:25.002Z,70.36
2019-04-03T10:53:24.962Z,68.93
2019-04-03T10:54:25.756Z,67.60
2019-04-03T10:55:27.295Z,67.90
2019-04-03T10:56:24.938Z,67.70
2019-04-03T10:57:25.084Z,68.52
2019-04-03T10:58:24.912Z,68.32
2019-04-03T10:59:24.899Z,67.60
2019-04-03T11:00:28.502Z,68.62
2019-04-03T11:01:24.885Z,68.62
2019-04-03T11:02:24.888Z,68.62
2019-04-03T11:03:26.129Z,68.83
2019-04-03T11:04:25.072Z,68.59
2019-04-03T11:05:25.116Z,68.18
2019-04-03T11:06:24.878Z,68.49
2019-04-03T11:07:24.815Z,68.38
2019-04-03T11:08:24.823Z,69.07
2019-04-03T11:09:24.796Z,68.05
2019-04-03T11:10:25.283Z,67.97
2019-04-03T11:11:24.857Z,68.38
2019-04-03T11:12:24.766Z,67.46
2019-04-03T11:13:24.802Z,66.54
2019-04-03T11:14:24.852Z,68.08
2019-04-03T11:15:24.723Z,68.32
2019-04-03T11:16:24.737Z,67.40
2019-04-03T11:17:25.708Z,68.32
2019-04-03T11:18:24.717Z,66.98
2019-04-03T11:19:24.704Z,67.40
2019-04-03T11:20:24.964Z,67.49
2019-04-03T11:21:24.658Z,66.98
2019-04-03T11:22:24.683Z,67.08
2019-04-03T11:23:36.956Z,66.47
2019-04-03T11:24:25.679Z,67.40
2019-04-03T11:25:24.850Z,68.55
2019-04-03T11:26:25.494Z,67.43
2019-04-03T11:27:39.887Z,66.71
2019-04-03T11:28:26.165Z,66.88
2019-04-03T11:29:24.955Z,66.98
2019-04-03T11:30:25.005Z,67.29
2019-04-03T11:31:28.253Z,65.45
2019-04-03T11:32:24.551Z,66.09
2019-04-03T11:33:24.535Z,65.24
2019-04-03T11:34:24.676Z,64.83
2019-04-03T11:35:24.852Z,65.34
2019-04-03T11:36:25.626Z,67.05
2019-04-03T11:37:24.503Z,67.26
2019-04-03T11:38:28.198Z,67.36
2019-04-03T11:39:24.466Z,66.85
2019-04-03T11:40:25.494Z,67.67
2019-04-03T11:41:24.552Z,68.05
2019-04-03T11:42:28.541Z,68.05
2019-04-03T11:43:24.460Z,65.59
2019-04-03T11:44:24.430Z,64.67
2019-04-03T11:45:24.417Z,64.77
2019-04-03T11:46:24.411Z,64.87
2019-04-03T11:47:24.616Z,64.47
2019-04-03T11:48:26.803Z,64.26
2019-04-03T11:49:24.526Z,64.36
2019-04-03T11:50:25.408Z,64.70
2019-04-03T11:51:24.339Z,64.60
2019-04-03T11:52:24.332Z,65.31
2019-04-03T11:53:24.324Z,66.20
2019-04-03T11:54:24.357Z,66.72
2019-04-03T11:55:24.509Z,65.72
2019-04-03T11:56:24.283Z,66.64
2019-04-03T11:57:26.704Z,66.92
2019-04-03T11:58:24.444Z,67.54
2019-04-03T11:59:24.445Z,64.18
2019-04-03T12:00:24.238Z,64.90
2019-04-03T12:01:24.234Z,64.70
2019-04-03T12:02:24.231Z,64.90
2019-04-03T12:03:24.217Z,65.42
2019-04-03T12:04:24.234Z,66.64
2019-04-03T12:05:24.245Z,66.16
2019-04-03T12:06:24.181Z,66.64
2019-04-03T12:07:25.115Z,66.64
2019-04-03T12:08:25.703Z,66.64
2019-04-03T12:09:24.182Z,67.16
2019-04-03T12:10:25.936Z,67.46
2019-04-03T12:11:24.333Z,66.75
2019-04-03T12:12:24.142Z,66.85
2019-04-03T12:13:24.152Z,66.64
2019-04-03T12:14:24.121Z,66.54
2019-04-03T12:15:24.077Z,66.95
2019-04-03T12:16:25.922Z,66.85
2019-04-03T12:17:24.083Z,67.05
2019-04-03T12:18:24.115Z,66.95
2019-04-03T12:19:24.041Z,66.85
2019-04-03T12:20:24.059Z,66.75
2019-04-03T12:21:24.405Z,66.75
2019-04-03T12:22:24.200Z,67.16
2019-04-03T12:23:24.411Z,67.05
2019-04-03T12:24:23.990Z,67.05
2019-04-03T12:25:23.977Z,67.05
2019-04-03T12:26:24.382Z,67.16
2019-04-03T12:27:24.221Z,66.03
2019-04-03T12:28:24.116Z,66.95
2019-04-03T12:29:24.171Z,66.24
2019-04-03T12:30:26.498Z,66.92
2019-04-03T12:31:23.931Z,65.62
2019-04-03T12:32:36.134Z,65.62
2019-04-03T12:33:24.916Z,65.01
2019-04-03T12:34:23.953Z,64.18
2019-04-03T12:35:24.047Z,62.76
2019-04-03T12:36:26.613Z,62.83
2019-04-03T12:37:24.993Z,63.95
2019-04-03T12:38:23.909Z,64.26
2019-04-03T12:39:24.796Z,64.26
2019-04-03T12:40:23.826Z,62.73
2019-04-03T12:41:23.844Z,64.16
2019-04-03T12:42:23.832Z,64.26
2019-04-03T12:43:24.061Z,64.26
2019-04-03T12:44:23.766Z,64.16
2019-04-03T12:45:25.728Z,64.98
2019-04-03T12:46:24.118Z,65.39
2019-04-03T12:47:23.958Z,66.82
2019-04-03T12:48:23.993Z,66.82
2019-04-03T12:49:24.264Z,67.13
2019-04-03T12:50:26.528Z,66.92
2019-04-03T12:51:23.744Z,65.25
2019-04-03T12:52:23.694Z,65.66
2019-04-03T12:53:24.568Z,63.82
2019-04-03T12:54:23.710Z,63.21
2019-04-03T12:55:25.941Z,61.36
2019-04-03T12:56:25.172Z,62.42
2019-04-03T12:57:23.626Z,61.70
2019-04-03T12:58:23.648Z,61.50
2019-04-03T12:59:23.841Z,61.67
2019-04-03T13:00:23.634Z,62.29
2019-04-03T13:01:23.579Z,63.00
2019-04-03T13:02:23.589Z,62.80
2019-04-03T13:03:24.674Z,63.92
2019-04-03T13:04:25.249Z,63.00
2019-04-03T13:05:23.541Z,62.90
2019-04-03T13:06:23.538Z,63.79
2019-04-03T13:07:23.518Z,64.10
2019-04-03T13:08:23.536Z,63.07
2019-04-03T13:09:23.532Z,64.10
2019-04-03T13:10:23.485Z,63.59
2019-04-03T13:11:23.483Z,64.13
2019-04-03T13:12:26.831Z,62.80
2019-04-03T13:13:25.236Z,63.00
2019-04-03T13:14:26.419Z,64.36
2019-04-03T13:15:23.696Z,64.26
2019-04-03T13:16:23.654Z,64.26
2019-04-03T13:17:23.536Z,65.01
2019-04-03T13:18:23.398Z,64.60
2019-04-03T13:19:24.484Z,64.47
2019-04-03T13:20:23.437Z,64.47
2019-04-03T13:21:23.367Z,62.85
2019-04-03T13:22:23.455Z,62.96
2019-04-03T13:23:23.355Z,64.16
2019-04-03T13:24:23.543Z,64.60
2019-04-03T13:25:23.460Z,64.70
2019-04-03T13:26:24.784Z,64.80
2019-04-03T13:27:23.301Z,64.90
2019-04-03T13:28:23.411Z,65.01
2019-04-03T13:29:23.291Z,64.29
2019-04-03T13:30:23.533Z,64.90
2019-04-03T13:31:23.269Z,65.62
2019-04-03T13:32:23.727Z,65.24
2019-04-03T13:33:23.311Z,64.80
2019-04-03T13:34:23.252Z,64.50
2019-04-03T13:35:23.221Z,63.98
2019-04-03T13:36:24.474Z,64.09
2019-04-03T13:37:23.925Z,63.88
2019-04-03T13:38:23.187Z,62.85
2019-04-03T13:39:23.220Z,63.06
2019-04-03T13:40:23.481Z,63.88
2019-04-03T13:41:23.602Z,63.88
2019-04-03T13:42:23.228Z,62.96
2019-04-03T13:43:23.508Z,63.06
2019-04-03T13:44:25.984Z,64.09
2019-04-03T13:45:23.581Z,63.98
2019-04-03T13:46:23.452Z,63.88
2019-04-03T13:47:23.090Z,64.18
2019-04-03T13:48:23.099Z,64.60
2019-04-03T13:49:23.463Z,63.17
2019-04-03T13:50:23.581Z,64.18
2019-04-03T13:51:25.361Z,63.98
2019-04-03T13:52:23.445Z,63.57
2019-04-03T13:53:25.043Z,64.60
2019-04-03T13:54:25.198Z,63.98
2019-04-03T13:55:23.027Z,64.09
2019-04-03T13:56:24.423Z,63.98
2019-04-03T13:57:22.990Z,63.06
2019-04-03T13:58:23.361Z,62.96
2019-04-03T13:59:25.208Z,62.96
2019-04-03T14:00:23.764Z,61.73
2019-04-03T14:01:22.958Z,61.52
2019-04-03T14:02:22.977Z,61.93
2019-04-03T14:03:23.146Z,62.35
2019-04-03T14:04:23.566Z,63.06
2019-04-03T14:05:23.037Z,63.06
2019-04-03T14:06:23.249Z,62.55
2019-04-03T14:07:23.088Z,62.76
2019-04-03T14:08:23.098Z,62.85
2019-04-03T14:09:22.890Z,62.76
2019-04-03T14:10:26.134Z,62.24
2019-04-03T14:11:23.293Z,61.43
2019-04-03T14:12:22.855Z,62.24
2019-04-03T14:13:22.861Z,62.85
2019-04-03T14:14:22.846Z,62.35
2019-04-03T14:15:23.070Z,62.24
2019-04-03T14:16:23.547Z,62.85
2019-04-03T14:17:22.774Z,62.24
2019-04-03T14:18:22.789Z,61.32
2019-04-03T14:19:24.991Z,61.50
2019-04-03T14:20:23.744Z,61.09
2019-04-03T14:21:22.873Z,60.60
2019-04-03T14:22:22.760Z,60.19
2019-04-03T14:23:22.710Z,59.89
2019-04-03T14:24:22.708Z,59.27
2019-04-03T14:25:25.562Z,59.17
2019-04-03T14:26:23.986Z,59.38
2019-04-03T14:27:26.752Z,60.10
2019-04-03T14:28:23.651Z,58.97
2019-04-03T14:29:22.657Z,59.30
2019-04-03T14:30:22.674Z,58.66
2019-04-03T14:31:33.536Z,59.58
2019-04-03T14:32:23.901Z,59.48
2019-04-03T14:33:24.884Z,59.38
2019-04-03T14:34:22.582Z,59.58
2019-04-03T14:35:53.225Z,59.99
2019-04-03T14:36:25.352Z,60.60
2019-04-03T14:37:26.052Z,60.10
2019-04-03T14:38:22.653Z,60.10
2019-04-03T14:39:22.806Z,60.10
2019-04-03T14:40:22.518Z,60.17
2019-04-03T14:41:22.506Z,59.25
2019-04-03T14:42:25.666Z,58.02
2019-04-03T14:43:22.847Z,58.15
2019-04-03T14:44:22.816Z,57.51
2019-04-03T14:45:22.654Z,59.55
2019-04-03T14:46:22.462Z,55.66
2019-04-03T14:47:23.440Z,55.87
2019-04-03T14:48:25.509Z,56.28
2019-04-03T14:49:22.537Z,56.59
2019-04-03T14:50:22.508Z,55.97
2019-04-03T14:51:22.402Z,55.26
2019-04-03T14:52:22.812Z,55.87
2019-04-03T14:53:22.580Z,55.28
2019-04-03T14:54:24.603Z,57.61
2019-04-03T14:55:23.590Z,57.51
2019-04-03T14:56:22.733Z,55.26
2019-04-03T14:57:23.697Z,55.15
2019-04-03T14:58:25.688Z,55.05
2019-04-03T14:59:22.499Z,56.48
2019-04-03T15:00:27.479Z,57.61
2019-04-03T15:01:23.294Z,58.43
2019-04-03T15:02:23.860Z,59.04
2019-04-03T15:03:22.758Z,57.10
2019-04-03T15:04:22.271Z,58.50
2019-04-03T15:05:22.341Z,59.76
2019-04-03T15:06:22.252Z,57.30
2019-04-03T15:07:22.262Z,57.48
2019-04-03T15:08:23.541Z,58.91
2019-04-03T15:09:22.419Z,59.53
2019-04-03T15:10:22.943Z,59.12
2019-04-03T15:11:22.194Z,59.32
2019-04-03T15:12:22.267Z,59.63
2019-04-03T15:13:22.411Z,59.53
2019-04-03T15:14:22.954Z,59.01
2019-04-03T15:15:22.145Z,58.91
2019-04-03T15:16:22.162Z,59.94
2019-04-03T15:17:22.513Z,59.63
2019-04-03T15:18:22.129Z,60.37
2019-04-03T15:19:22.104Z,60.27
2019-04-03T15:20:22.137Z,62.18
2019-04-03T15:21:23.798Z,60.99
2019-04-03T15:22:22.411Z,60.60
2019-04-03T15:23:22.052Z,62.65
2019-04-03T15:24:22.055Z,63.06
2019-04-03T15:25:22.028Z,62.85
2019-04-03T15:26:22.515Z,62.85
2019-04-03T15:27:22.430Z,62.96
2019-04-03T15:28:22.071Z,64.29
2019-04-03T15:29:21.998Z,63.06
2019-04-03T15:30:24.817Z,61.01
2019-04-03T15:31:23.929Z,61.32
2019-04-03T15:32:22.836Z,61.52
2019-04-03T15:33:24.289Z,62.76
2019-04-03T15:34:22.131Z,62.27
2019-04-03T15:35:22.229Z,62.88
2019-04-03T15:36:21.945Z,62.88
2019-04-03T15:37:21.981Z,62.99
2019-04-03T15:38:22.050Z,64.01
2019-04-03T15:39:21.880Z,65.27
2019-04-03T15:40:24.618Z,64.86
2019-04-03T15:41:21.914Z,65.58
2019-04-03T15:42:21.985Z,66.91
2019-04-03T15:43:22.284Z,68.65
2019-04-03T15:44:22.805Z,68.65
2019-04-03T15:45:24.940Z,69.57
2019-04-03T15:46:22.013Z,70.29
2019-04-03T15:47:33.918Z,71.22
2019-04-03T15:48:23.276Z,71.52
2019-04-03T15:49:21.772Z,72.14
2019-04-03T15:50:21.948Z,69.98
2019-04-03T15:51:21.918Z,69.95
2019-04-03T15:52:21.751Z,70.77
2019-04-03T15:53:23.915Z,69.24
2019-04-03T15:54:21.731Z,69.85
2019-04-03T15:55:24.123Z,68.01
2019-04-03T15:56:22.137Z,67.08
2019-04-03T15:57:23.156Z,65.75
2019-04-03T15:58:22.817Z,67.63
2019-04-03T15:59:22.348Z,67.43
2019-04-03T16:00:21.707Z,67.32
2019-04-03T16:01:21.861Z,67.63
2019-04-03T16:02:21.695Z,67.73
2019-04-03T16:03:21.835Z,68.65
2019-04-03T16:04:21.736Z,69.17
2019-04-03T16:05:21.611Z,65.37
2019-04-03T16:06:22.303Z,67.05
2019-04-03T16:07:21.676Z,67.97
2019-04-03T16:08:21.671Z,67.05
2019-04-03T16:09:21.620Z,66.53
2019-04-03T16:10:23.234Z,67.14
2019-04-03T16:11:21.577Z,68.07
2019-04-03T16:12:22.345Z,68.99
2019-04-03T16:13:22.179Z,69.81
2019-04-03T16:14:21.669Z,70.22
2019-04-03T16:15:22.637Z,68.99
2019-04-03T16:16:21.691Z,66.74
2019-04-03T16:17:21.623Z,67.14
2019-04-03T16:18:21.502Z,67.14
2019-04-03T16:19:21.475Z,67.76
2019-04-03T16:20:21.472Z,68.10
2019-04-03T16:21:23.648Z,67.38
2019-04-03T16:22:21.545Z,65.74
2019-04-03T16:23:21.571Z,66.36
2019-04-03T16:24:21.602Z,66.97
2019-04-03T16:25:21.393Z,68.41
2019-04-03T16:26:23.796Z,68.72
2019-04-03T16:27:22.137Z,69.64
2019-04-03T16:28:22.753Z,68.82
2019-04-03T16:29:21.661Z,70.05
2019-04-03T16:30:21.861Z,70.46
2019-04-03T16:31:21.758Z,70.46
2019-04-03T16:32:21.722Z,70.97
2019-04-03T16:33:24.012Z,70.26
2019-04-03T16:34:21.317Z,70.05
2019-04-03T16:35:21.698Z,69.54
2019-04-03T16:36:21.278Z,68.82
2019-04-03T16:37:22.692Z,68.92
2019-04-03T16:38:21.792Z,69.02
2019-04-03T16:39:21.484Z,68.92
2019-04-03T16:40:21.373Z,69.43
2019-04-03T16:41:21.261Z,68.00
2019-04-03T16:42:21.403Z,68.51
2019-04-03T16:43:22.145Z,66.77
2019-04-03T16:44:21.190Z,67.49
2019-04-03T16:45:21.181Z,68.72
2019-04-03T16:46:21.178Z,68.72
2019-04-03T16:47:21.205Z,68.75
2019-04-03T16:48:21.238Z,69.26
2019-04-03T16:49:22.812Z,69.16
2019-04-03T16:50:27.953Z,69.16
2019-04-03T16:51:21.446Z,69.43
2019-04-03T16:52:22.184Z,69.78
2019-04-03T16:53:21.446Z,68.72
2019-04-03T16:54:21.669Z,68.75
2019-04-03T16:55:21.553Z,68.92
2019-04-03T16:56:21.127Z,69.13
2019-04-03T16:57:22.606Z,69.06
2019-04-03T16:58:21.052Z,68.24
2019-04-03T16:59:21.037Z,68.34
2019-04-03T17:00:21.033Z,68.62
2019-04-03T17:01:21.108Z,69.13
2019-04-03T17:02:23.890Z,68.75
2019-04-03T17:03:21.366Z,68.10
2019-04-03T17:04:26.868Z,68.34
2019-04-03T17:05:22.324Z,68.75
2019-04-03T17:06:20.952Z,68.75
2019-04-03T17:07:21.794Z,68.34
2019-04-03T17:08:20.933Z,67.52
2019-04-03T17:09:20.918Z,67.83
2019-04-03T17:10:20.913Z,68.75
2019-04-03T17:11:20.904Z,68.96
2019-04-03T17:12:20.951Z,69.60
2019-04-03T17:13:21.469Z,69.81
2019-04-03T17:14:23.302Z,70.63
2019-04-03T17:15:20.851Z,70.01
2019-04-03T17:16:20.849Z,69.91
2019-04-03T17:17:20.928Z,70.12
2019-04-03T17:18:20.895Z,70.22
2019-04-03T17:19:21.169Z,70.63
2019-04-03T17:20:22.570Z,70.73
2019-04-03T17:21:21.044Z,70.94
2019-04-03T17:25:04.667Z,71.97
2019-04-03T17:26:05.094Z,71.86
2019-04-03T17:27:04.596Z,71.35
2019-04-03T17:28:09.165Z,71.48
2019-04-03T17:29:06.350Z,71.55
2019-04-03T17:30:04.622Z,71.38
2019-04-03T17:31:04.718Z,71.35
2019-04-03T17:32:07.811Z,71.35
2019-04-03T17:33:04.650Z,71.79
2019-04-03T17:34:07.519Z,71.45
2019-04-03T17:35:06.729Z,71.48
2019-04-03T17:36:04.506Z,71.55
2019-04-03T17:37:04.506Z,71.35
2019-04-03T17:38:04.643Z,71.45
2019-04-03T17:39:05.510Z,71.79
2019-04-03T17:40:05.936Z,72.38
2019-04-03T17:41:05.030Z,71.04
2019-04-03T17:42:04.443Z,70.42
2019-04-03T17:43:04.474Z,71.14
2019-04-03T17:44:04.471Z,71.38
2019-04-03T17:45:04.413Z,71.48
2019-04-03T17:46:04.397Z,71.48
2019-04-03T17:47:04.406Z,71.48
2019-04-03T17:48:04.378Z,71.28
2019-04-03T17:49:04.395Z,71.38
2019-04-03T17:50:06.198Z,71.83
2019-04-03T17:51:04.377Z,71.79
2019-04-03T17:52:05.111Z,71.89
2019-04-03T17:53:06.215Z,72.85
2019-04-03T17:54:07.532Z,73.02
2019-04-03T17:55:04.305Z,72.34
2019-04-03T17:56:04.282Z,72.00
2019-04-03T17:57:04.280Z,72.75
2019-04-03T17:58:04.265Z,73.13
2019-04-03T17:59:04.298Z,73.57
2019-04-03T18:00:04.287Z,73.36
2019-04-03T18:01:04.248Z,73.47
2019-04-03T18:02:04.229Z,73.13
2019-04-03T18:03:04.214Z,74.08
2019-04-03T18:04:04.207Z,74.08
2019-04-03T18:05:06.460Z,73.98
2019-04-03T18:06:04.224Z,74.08
2019-04-03T18:07:04.198Z,73.98
2019-04-03T18:08:04.165Z,73.98
2019-04-03T18:09:04.220Z,73.78
2019-04-03T18:10:04.339Z,74.08
2019-04-03T18:11:04.163Z,73.88
2019-04-03T18:12:04.126Z,74.29
2019-04-03T18:13:04.137Z,73.98
2019-04-03T18:14:04.142Z,73.16
2019-04-03T18:15:04.084Z,73.40
2019-04-03T18:16:04.109Z,74.29
2019-04-03T18:17:04.108Z,74.53
2019-04-03T18:18:04.058Z,74.91
2019-04-03T18:19:04.918Z,74.80
2019-04-03T18:20:04.044Z,74.40
2019-04-03T18:21:04.055Z,74.50
2019-04-03T18:22:04.027Z,73.16
2019-04-03T18:23:04.029Z,73.47
2019-04-03T18:24:03.995Z,74.33
2019-04-03T18:25:03.985Z,73.40
2019-04-03T18:26:03.980Z,74.02
2019-04-03T18:27:06.355Z,73.81
2019-04-03T18:28:05.404Z,73.50
2019-04-03T18:29:06.369Z,74.12
2019-04-03T18:30:03.929Z,74.33
2019-04-03T18:31:03.964Z,74.12
2019-04-03T18:32:03.912Z,74.22
2019-04-03T18:33:05.779Z,74.53
2019-04-03T18:34:03.941Z,74.53
2019-04-03T18:35:06.789Z,73.91
2019-04-03T18:36:03.862Z,74.33
2019-04-03T18:37:04.467Z,74.57
2019-04-03T18:38:03.899Z,74.95
2019-04-03T18:39:03.874Z,74.84
2019-04-03T18:40:03.865Z,75.25
2019-04-03T18:41:04.238Z,74.84
2019-04-03T18:42:03.819Z,74.84
2019-04-03T18:43:03.839Z,75.04
2019-04-03T18:44:03.823Z,75.15
2019-04-03T18:45:03.767Z,74.43
2019-04-03T18:46:03.776Z,74.33
2019-04-03T18:47:06.493Z,74.84
2019-04-03T18:48:03.790Z,74.84
2019-04-03T18:49:03.740Z,75.18
2019-04-03T18:50:03.918Z,74.77
2019-04-03T18:51:05.642Z,75.39
2019-04-03T18:52:03.692Z,75.29
2019-04-03T18:53:03.725Z,75.18
2019-04-03T18:54:03.731Z,76.11
2019-04-03T18:55:03.654Z,75.80